sensor_id;sensor_type;location;lat;lon;timestamp;P1;durP1;ratioP1;P2;durP2;ratioP2
12165;SDS011;6146;48.128;11.476;2023-05-07T00:01:43;37.57;;;34.17;;
12165;SDS011;6146;48.128;11.476;2023-05-07T00:04:08;30.30;;;27.60;;
12165;SDS011;6146;48.128;11.476;2023-05-07T00:06:34;21.80;;;19.80;;
12165;SDS011;6146;48.128;11.476;2023-05-07T00:09:00;15.80;;;14.30;;
12165;SDS011;6146;48.128;11.476;2023-05-07T00:11:26;14.37;;;13.00;;
12165;SDS011;6146;48.128;11.476;2023-05-07T00:13:52;13.60;;;12.50;;
12165;SDS011;6146;48.128;11.476;2023-05-07T00:16:18;13.27;;;12.07;;
12165;SDS011;6146;48.128;11.476;2023-05-07T00:18:44;13.57;;;12.33;;
12165;SDS011;6146;48.128;11.476;2023-05-07T00:21:10;12.67;;;11.47;;
12165;SDS011;6146;48.128;11.476;2023-05-07T00:23:35;11.97;;;10.87;;
12165;SDS011;6146;48.128;11.476;2023-05-07T00:26:02;10.47;;;9.47;;
12165;SDS011;6146;48.128;11.476;2023-05-07T00:28:28;13.07;;;10.90;;
12165;SDS011;6146;48.128;11.476;2023-05-07T00:30:54;10.47;;;9.57;;
12165;SDS011;6146;48.128;11.476;2023-05-07T00:33:19;11.47;;;9.10;;
12165;SDS011;6146;48.128;11.476;2023-05-07T00:35:45;13.00;;;11.53;;
12165;SDS011;6146;48.128;11.476;2023-05-07T00:38:11;11.50;;;10.40;;
12165;SDS011;6146;48.128;11.476;2023-05-07T00:40:37;10.43;;;9.43;;
12165;SDS011;6146;48.128;11.476;2023-05-07T00:43:02;10.90;;;9.80;;
12165;SDS011;6146;48.128;11.476;2023-05-07T00:45:28;11.37;;;10.20;;
12165;SDS011;6146;48.128;11.476;2023-05-07T00:47:55;11.23;;;9.70;;
12165;SDS011;6146;48.128;11.476;2023-05-07T00:50:24;10.40;;;9.13;;
12165;SDS011;6146;48.128;11.476;2023-05-07T00:52:50;10.33;;;9.43;;
12165;SDS011;6146;48.128;11.476;2023-05-07T00:55:16;10.83;;;9.73;;
12165;SDS011;6146;48.128;11.476;2023-05-07T00:57:42;9.73;;;8.83;;
12165;SDS011;6146;48.128;11.476;2023-05-07T01:00:09;9.33;;;8.53;;
12165;SDS011;6146;48.128;11.476;2023-05-07T01:02:37;9.40;;;8.57;;
12165;SDS011;6146;48.128;11.476;2023-05-07T01:05:03;10.47;;;9.47;;
12165;SDS011;6146;48.128;11.476;2023-05-07T01:07:31;10.73;;;8.90;;
12165;SDS011;6146;48.128;11.476;2023-05-07T01:09:58;9.83;;;8.90;;
12165;SDS011;6146;48.128;11.476;2023-05-07T01:12:24;9.93;;;8.93;;
12165;SDS011;6146;48.128;11.476;2023-05-07T01:14:50;9.07;;;8.17;;
12165;SDS011;6146;48.128;11.476;2023-05-07T01:17:16;9.77;;;8.73;;
12165;SDS011;6146;48.128;11.476;2023-05-07T01:19:42;8.87;;;8.00;;
12165;SDS011;6146;48.128;11.476;2023-05-07T01:22:09;8.80;;;8.00;;
12165;SDS011;6146;48.128;11.476;2023-05-07T01:24:37;8.63;;;7.73;;
12165;SDS011;6146;48.128;11.476;2023-05-07T01:27:03;8.97;;;8.17;;
12165;SDS011;6146;48.128;11.476;2023-05-07T01:29:29;8.20;;;7.50;;
12165;SDS011;6146;48.128;11.476;2023-05-07T01:31:59;14.13;;;8.40;;
12165;SDS011;6146;48.128;11.476;2023-05-07T01:34:25;9.70;;;8.70;;
12165;SDS011;6146;48.128;11.476;2023-05-07T01:36:55;10.07;;;9.07;;
12165;SDS011;6146;48.128;11.476;2023-05-07T01:39:26;9.73;;;8.80;;
12165;SDS011;6146;48.128;11.476;2023-05-07T01:41:54;12.07;;;10.77;;
12165;SDS011;6146;48.128;11.476;2023-05-07T01:44:21;11.77;;;10.57;;
12165;SDS011;6146;48.128;11.476;2023-05-07T01:46:47;12.37;;;10.60;;
12165;SDS011;6146;48.128;11.476;2023-05-07T01:49:14;11.43;;;9.87;;
12165;SDS011;6146;48.128;11.476;2023-05-07T01:51:40;10.93;;;9.83;;
12165;SDS011;6146;48.128;11.476;2023-05-07T01:54:06;12.23;;;10.33;;
12165;SDS011;6146;48.128;11.476;2023-05-07T01:56:33;10.63;;;9.63;;
12165;SDS011;6146;48.128;11.476;2023-05-07T01:58:58;9.93;;;8.93;;
12165;SDS011;6146;48.128;11.476;2023-05-07T02:01:24;9.73;;;8.73;;
12165;SDS011;6146;48.128;11.476;2023-05-07T02:03:50;9.57;;;8.67;;
12165;SDS011;6146;48.128;11.476;2023-05-07T02:06:15;8.67;;;7.87;;
12165;SDS011;6146;48.128;11.476;2023-05-07T02:08:41;8.43;;;7.73;;
12165;SDS011;6146;48.128;11.476;2023-05-07T02:11:06;8.60;;;7.70;;
12165;SDS011;6146;48.128;11.476;2023-05-07T02:13:32;7.93;;;7.17;;
12165;SDS011;6146;48.128;11.476;2023-05-07T02:15:59;8.07;;;7.30;;
12165;SDS011;6146;48.128;11.476;2023-05-07T02:18:25;8.43;;;7.63;;
12165;SDS011;6146;48.128;11.476;2023-05-07T02:20:51;8.87;;;7.67;;
12165;SDS011;6146;48.128;11.476;2023-05-07T02:23:16;7.77;;;6.80;;
12165;SDS011;6146;48.128;11.476;2023-05-07T02:25:42;8.70;;;7.60;;
12165;SDS011;6146;48.128;11.476;2023-05-07T02:28:07;7.90;;;7.17;;
12165;SDS011;6146;48.128;11.476;2023-05-07T02:30:33;7.00;;;6.40;;
12165;SDS011;6146;48.128;11.476;2023-05-07T02:32:58;7.57;;;6.97;;
12165;SDS011;6146;48.128;11.476;2023-05-07T02:35:24;7.03;;;6.43;;
12165;SDS011;6146;48.128;11.476;2023-05-07T02:37:50;8.20;;;7.40;;
12165;SDS011;6146;48.128;11.476;2023-05-07T02:40:16;9.77;;;6.90;;
12165;SDS011;6146;48.128;11.476;2023-05-07T02:42:42;8.00;;;7.13;;
12165;SDS011;6146;48.128;11.476;2023-05-07T02:45:07;8.20;;;7.27;;
12165;SDS011;6146;48.128;11.476;2023-05-07T02:47:33;7.10;;;6.40;;
12165;SDS011;6146;48.128;11.476;2023-05-07T02:49:59;7.83;;;6.83;;
12165;SDS011;6146;48.128;11.476;2023-05-07T02:52:25;7.80;;;7.10;;
12165;SDS011;6146;48.128;11.476;2023-05-07T02:54:50;8.33;;;7.40;;
12165;SDS011;6146;48.128;11.476;2023-05-07T02:57:16;10.03;;;7.47;;
12165;SDS011;6146;48.128;11.476;2023-05-07T02:59:42;8.07;;;7.37;;
12165;SDS011;6146;48.128;11.476;2023-05-07T03:02:07;7.80;;;7.10;;
12165;SDS011;6146;48.128;11.476;2023-05-07T03:04:33;10.00;;;7.23;;
12165;SDS011;6146;48.128;11.476;2023-05-07T03:06:58;7.87;;;6.57;;
12165;SDS011;6146;48.128;11.476;2023-05-07T03:09:24;7.87;;;6.83;;
12165;SDS011;6146;48.128;11.476;2023-05-07T03:11:49;7.90;;;7.20;;
12165;SDS011;6146;48.128;11.476;2023-05-07T03:14:15;7.47;;;6.67;;
12165;SDS011;6146;48.128;11.476;2023-05-07T03:16:40;7.23;;;6.53;;
12165;SDS011;6146;48.128;11.476;2023-05-07T03:19:06;7.20;;;6.60;;
12165;SDS011;6146;48.128;11.476;2023-05-07T03:21:32;8.23;;;6.73;;
12165;SDS011;6146;48.128;11.476;2023-05-07T03:23:58;7.87;;;6.17;;
12165;SDS011;6146;48.128;11.476;2023-05-07T03:26:25;7.03;;;6.33;;
12165;SDS011;6146;48.128;11.476;2023-05-07T03:28:50;7.47;;;6.77;;
12165;SDS011;6146;48.128;11.476;2023-05-07T03:31:16;6.73;;;6.13;;
12165;SDS011;6146;48.128;11.476;2023-05-07T03:33:55;6.80;;;6.20;;
12165;SDS011;6146;48.128;11.476;2023-05-07T03:36:22;6.93;;;6.20;;
12165;SDS011;6146;48.128;11.476;2023-05-07T03:38:48;6.70;;;6.10;;
12165;SDS011;6146;48.128;11.476;2023-05-07T03:41:15;7.13;;;6.50;;
12165;SDS011;6146;48.128;11.476;2023-05-07T03:43:40;7.30;;;6.60;;
12165;SDS011;6146;48.128;11.476;2023-05-07T03:46:06;7.00;;;6.37;;
12165;SDS011;6146;48.128;11.476;2023-05-07T03:48:32;6.73;;;6.13;;
12165;SDS011;6146;48.128;11.476;2023-05-07T03:50:58;7.00;;;6.30;;
12165;SDS011;6146;48.128;11.476;2023-05-07T03:53:24;7.60;;;6.90;;
12165;SDS011;6146;48.128;11.476;2023-05-07T03:55:49;8.00;;;7.20;;
12165;SDS011;6146;48.128;11.476;2023-05-07T03:58:15;7.30;;;6.60;;
12165;SDS011;6146;48.128;11.476;2023-05-07T04:00:41;7.40;;;6.60;;
12165;SDS011;6146;48.128;11.476;2023-05-07T04:03:07;7.60;;;6.73;;
12165;SDS011;6146;48.128;11.476;2023-05-07T04:05:32;7.33;;;6.63;;
12165;SDS011;6146;48.128;11.476;2023-05-07T04:07:58;9.37;;;7.37;;
12165;SDS011;6146;48.128;11.476;2023-05-07T04:10:24;7.00;;;6.40;;
12165;SDS011;6146;48.128;11.476;2023-05-07T04:12:50;7.27;;;6.57;;
12165;SDS011;6146;48.128;11.476;2023-05-07T04:15:16;7.30;;;6.57;;
12165;SDS011;6146;48.128;11.476;2023-05-07T04:17:41;6.90;;;6.20;;
12165;SDS011;6146;48.128;11.476;2023-05-07T04:20:13;8.30;;;6.60;;
12165;SDS011;6146;48.128;11.476;2023-05-07T04:22:40;6.73;;;6.13;;
12165;SDS011;6146;48.128;11.476;2023-05-07T04:25:06;7.20;;;6.50;;
12165;SDS011;6146;48.128;11.476;2023-05-07T04:27:34;7.10;;;6.50;;
12165;SDS011;6146;48.128;11.476;2023-05-07T04:29:59;6.87;;;6.27;;
12165;SDS011;6146;48.128;11.476;2023-05-07T04:32:25;7.03;;;6.33;;
12165;SDS011;6146;48.128;11.476;2023-05-07T04:34:51;6.90;;;6.23;;
12165;SDS011;6146;48.128;11.476;2023-05-07T04:37:18;7.00;;;6.33;;
12165;SDS011;6146;48.128;11.476;2023-05-07T04:39:43;9.03;;;6.93;;
12165;SDS011;6146;48.128;11.476;2023-05-07T04:42:09;7.37;;;5.97;;
12165;SDS011;6146;48.128;11.476;2023-05-07T04:44:39;6.47;;;5.77;;
12165;SDS011;6146;48.128;11.476;2023-05-07T04:47:05;7.20;;;5.87;;
12165;SDS011;6146;48.128;11.476;2023-05-07T04:49:31;6.40;;;5.80;;
12165;SDS011;6146;48.128;11.476;2023-05-07T04:51:56;6.07;;;5.57;;
12165;SDS011;6146;48.128;11.476;2023-05-07T04:54:22;6.50;;;5.90;;
12165;SDS011;6146;48.128;11.476;2023-05-07T04:56:47;6.43;;;5.47;;
12165;SDS011;6146;48.128;11.476;2023-05-07T04:59:13;6.10;;;5.50;;
12165;SDS011;6146;48.128;11.476;2023-05-07T05:01:38;5.53;;;5.03;;
12165;SDS011;6146;48.128;11.476;2023-05-07T05:04:05;6.07;;;5.57;;
12165;SDS011;6146;48.128;11.476;2023-05-07T05:06:30;5.57;;;5.07;;
12165;SDS011;6146;48.128;11.476;2023-05-07T05:08:57;5.80;;;4.87;;
12165;SDS011;6146;48.128;11.476;2023-05-07T05:11:22;5.20;;;4.70;;
12165;SDS011;6146;48.128;11.476;2023-05-07T05:13:48;5.57;;;4.93;;
12165;SDS011;6146;48.128;11.476;2023-05-07T05:16:14;5.30;;;4.80;;
12165;SDS011;6146;48.128;11.476;2023-05-07T05:18:40;5.10;;;4.60;;
12165;SDS011;6146;48.128;11.476;2023-05-07T05:21:06;5.07;;;4.40;;
12165;SDS011;6146;48.128;11.476;2023-05-07T05:23:31;4.77;;;4.27;;
12165;SDS011;6146;48.128;11.476;2023-05-07T05:25:57;5.67;;;4.40;;
12165;SDS011;6146;48.128;11.476;2023-05-07T05:28:23;4.87;;;4.20;;
12165;SDS011;6146;48.128;11.476;2023-05-07T05:30:49;4.07;;;3.77;;
12165;SDS011;6146;48.128;11.476;2023-05-07T05:33:15;4.20;;;3.57;;
12165;SDS011;6146;48.128;11.476;2023-05-07T05:35:41;3.87;;;3.53;;
12165;SDS011;6146;48.128;11.476;2023-05-07T05:38:06;4.67;;;3.40;;
12165;SDS011;6146;48.128;11.476;2023-05-07T05:40:32;3.17;;;2.90;;
12165;SDS011;6146;48.128;11.476;2023-05-07T05:42:58;3.40;;;3.10;;
12165;SDS011;6146;48.128;11.476;2023-05-07T05:45:24;3.17;;;2.87;;
12165;SDS011;6146;48.128;11.476;2023-05-07T05:47:49;3.20;;;2.90;;
12165;SDS011;6146;48.128;11.476;2023-05-07T05:50:15;4.57;;;3.87;;
12165;SDS011;6146;48.128;11.476;2023-05-07T05:52:41;4.27;;;2.90;;
12165;SDS011;6146;48.128;11.476;2023-05-07T05:55:07;3.57;;;3.27;;
12165;SDS011;6146;48.128;11.476;2023-05-07T05:57:33;3.47;;;3.10;;
12165;SDS011;6146;48.128;11.476;2023-05-07T05:59:59;3.43;;;3.10;;
12165;SDS011;6146;48.128;11.476;2023-05-07T06:02:25;3.58;;;3.20;;
12165;SDS011;6146;48.128;11.476;2023-05-07T06:04:51;2.80;;;2.60;;
12165;SDS011;6146;48.128;11.476;2023-05-07T06:07:16;3.08;;;2.80;;
12165;SDS011;6146;48.128;11.476;2023-05-07T06:09:42;4.68;;;3.15;;
12165;SDS011;6146;48.128;11.476;2023-05-07T06:12:07;3.60;;;2.70;;
12165;SDS011;6146;48.128;11.476;2023-05-07T06:14:33;3.38;;;2.88;;
12165;SDS011;6146;48.128;11.476;2023-05-07T06:16:59;3.17;;;2.88;;
12165;SDS011;6146;48.128;11.476;2023-05-07T06:19:24;3.50;;;2.80;;
12165;SDS011;6146;48.128;11.476;2023-05-07T06:21:51;5.63;;;3.00;;
12165;SDS011;6146;48.128;11.476;2023-05-07T06:24:17;3.03;;;2.72;;
12165;SDS011;6146;48.128;11.476;2023-05-07T06:26:42;3.50;;;2.78;;
12165;SDS011;6146;48.128;11.476;2023-05-07T06:29:08;3.00;;;2.70;;
12165;SDS011;6146;48.128;11.476;2023-05-07T06:31:33;2.50;;;2.20;;
12165;SDS011;6146;48.128;11.476;2023-05-07T06:33:59;3.15;;;2.40;;
12165;SDS011;6146;48.128;11.476;2023-05-07T06:36:27;2.40;;;2.20;;
12165;SDS011;6146;48.128;11.476;2023-05-07T06:38:52;2.83;;;2.42;;
12165;SDS011;6146;48.128;11.476;2023-05-07T06:41:18;2.67;;;2.47;;
12165;SDS011;6146;48.128;11.476;2023-05-07T06:43:43;2.65;;;2.35;;
12165;SDS011;6146;48.128;11.476;2023-05-07T06:46:09;3.00;;;2.33;;
12165;SDS011;6146;48.128;11.476;2023-05-07T06:48:35;2.58;;;2.38;;
12165;SDS011;6146;48.128;11.476;2023-05-07T06:51:00;2.47;;;2.28;;
12165;SDS011;6146;48.128;11.476;2023-05-07T06:53:26;2.45;;;2.25;;
12165;SDS011;6146;48.128;11.476;2023-05-07T06:55:53;2.95;;;2.70;;
12165;SDS011;6146;48.128;11.476;2023-05-07T06:58:19;2.60;;;2.40;;
12165;SDS011;6146;48.128;11.476;2023-05-07T07:00:44;2.55;;;2.35;;
12165;SDS011;6146;48.128;11.476;2023-05-07T07:03:10;2.58;;;2.20;;
12165;SDS011;6146;48.128;11.476;2023-05-07T07:05:36;2.60;;;2.20;;
12165;SDS011;6146;48.128;11.476;2023-05-07T07:08:02;2.95;;;2.65;;
12165;SDS011;6146;48.128;11.476;2023-05-07T07:10:27;2.55;;;2.13;;
12165;SDS011;6146;48.128;11.476;2023-05-07T07:12:53;3.78;;;2.15;;
12165;SDS011;6146;48.128;11.476;2023-05-07T07:15:19;2.60;;;2.28;;
12165;SDS011;6146;48.128;11.476;2023-05-07T07:17:45;2.70;;;2.50;;
12165;SDS011;6146;48.128;11.476;2023-05-07T07:20:11;3.50;;;2.50;;
12165;SDS011;6146;48.128;11.476;2023-05-07T07:22:37;2.50;;;2.30;;
12165;SDS011;6146;48.128;11.476;2023-05-07T07:25:02;2.55;;;2.35;;
12165;SDS011;6146;48.128;11.476;2023-05-07T07:27:28;3.92;;;2.40;;
12165;SDS011;6146;48.128;11.476;2023-05-07T07:29:54;2.75;;;2.45;;
12165;SDS011;6146;48.128;11.476;2023-05-07T07:32:19;3.10;;;2.60;;
12165;SDS011;6146;48.128;11.476;2023-05-07T07:34:45;2.95;;;2.75;;
12165;SDS011;6146;48.128;11.476;2023-05-07T07:37:11;3.70;;;2.35;;
12165;SDS011;6146;48.128;11.476;2023-05-07T07:39:36;3.35;;;2.60;;
12165;SDS011;6146;48.128;11.476;2023-05-07T07:42:06;2.55;;;2.33;;
12165;SDS011;6146;48.128;11.476;2023-05-07T07:44:31;2.60;;;2.40;;
12165;SDS011;6146;48.128;11.476;2023-05-07T07:46:57;5.88;;;2.80;;
12165;SDS011;6146;48.128;11.476;2023-05-07T07:49:22;2.47;;;2.28;;
12165;SDS011;6146;48.128;11.476;2023-05-07T07:51:48;2.80;;;2.60;;
12165;SDS011;6146;48.128;11.476;2023-05-07T07:54:13;2.88;;;2.38;;
12165;SDS011;6146;48.128;11.476;2023-05-07T07:56:39;2.90;;;2.65;;
12165;SDS011;6146;48.128;11.476;2023-05-07T07:59:05;2.47;;;2.28;;
12165;SDS011;6146;48.128;11.476;2023-05-07T08:01:30;2.85;;;2.55;;
12165;SDS011;6146;48.128;11.476;2023-05-07T08:03:56;2.60;;;2.13;;
12165;SDS011;6146;48.128;11.476;2023-05-07T08:06:23;2.40;;;2.20;;
12165;SDS011;6146;48.128;11.476;2023-05-07T08:08:50;2.47;;;2.28;;
12165;SDS011;6146;48.128;11.476;2023-05-07T08:11:16;2.97;;;2.20;;
12165;SDS011;6146;48.128;11.476;2023-05-07T08:13:42;2.97;;;2.10;;
12165;SDS011;6146;48.128;11.476;2023-05-07T08:16:08;3.15;;;2.70;;
12165;SDS011;6146;48.128;11.476;2023-05-07T08:18:34;2.60;;;2.30;;
12165;SDS011;6146;48.128;11.476;2023-05-07T08:21:00;2.60;;;2.40;;
12165;SDS011;6146;48.128;11.476;2023-05-07T08:23:26;2.40;;;2.20;;
12165;SDS011;6146;48.128;11.476;2023-05-07T08:25:51;2.97;;;1.85;;
12165;SDS011;6146;48.128;11.476;2023-05-07T08:28:17;2.33;;;2.13;;
12165;SDS011;6146;48.128;11.476;2023-05-07T08:30:44;3.47;;;2.38;;
12165;SDS011;6146;48.128;11.476;2023-05-07T08:33:10;2.67;;;2.33;;
12165;SDS011;6146;48.128;11.476;2023-05-07T08:35:35;3.42;;;2.47;;
12165;SDS011;6146;48.128;11.476;2023-05-07T08:38:01;3.55;;;2.20;;
12165;SDS011;6146;48.128;11.476;2023-05-07T08:40:26;2.55;;;2.35;;
12165;SDS011;6146;48.128;11.476;2023-05-07T08:42:53;2.72;;;2.53;;
12165;SDS011;6146;48.128;11.476;2023-05-07T08:45:19;3.72;;;2.35;;
12165;SDS011;6146;48.128;11.476;2023-05-07T08:47:54;2.67;;;2.38;;
12165;SDS011;6146;48.128;11.476;2023-05-07T08:50:26;2.35;;;2.15;;
12165;SDS011;6146;48.128;11.476;2023-05-07T08:52:52;2.30;;;2.10;;
12165;SDS011;6146;48.128;11.476;2023-05-07T08:55:18;2.42;;;2.22;;
12165;SDS011;6146;48.128;11.476;2023-05-07T08:57:44;3.35;;;2.35;;
12165;SDS011;6146;48.128;11.476;2023-05-07T09:00:10;2.15;;;1.92;;
12165;SDS011;6146;48.128;11.476;2023-05-07T09:02:36;2.70;;;2.50;;
12165;SDS011;6146;48.128;11.476;2023-05-07T09:05:02;2.38;;;2.17;;
12165;SDS011;6146;48.128;11.476;2023-05-07T09:07:28;2.95;;;2.20;;
12165;SDS011;6146;48.128;11.476;2023-05-07T09:09:55;3.15;;;2.30;;
12165;SDS011;6146;48.128;11.476;2023-05-07T09:12:21;2.50;;;1.90;;
12165;SDS011;6146;48.128;11.476;2023-05-07T09:14:47;3.08;;;2.13;;
12165;SDS011;6146;48.128;11.476;2023-05-07T09:17:13;1.60;;;1.50;;
12165;SDS011;6146;48.128;11.476;2023-05-07T09:19:40;3.00;;;2.30;;
12165;SDS011;6146;48.128;11.476;2023-05-07T09:22:06;2.13;;;1.83;;
12165;SDS011;6146;48.128;11.476;2023-05-07T09:24:32;1.85;;;1.75;;
12165;SDS011;6146;48.128;11.476;2023-05-07T09:27:03;2.40;;;1.92;;
12165;SDS011;6146;48.128;11.476;2023-05-07T09:29:29;2.28;;;1.70;;
12165;SDS011;6146;48.128;11.476;2023-05-07T09:32:00;2.53;;;1.77;;
12165;SDS011;6146;48.128;11.476;2023-05-07T09:34:29;3.15;;;1.60;;
12165;SDS011;6146;48.128;11.476;2023-05-07T09:36:55;1.45;;;1.35;;
12165;SDS011;6146;48.128;11.476;2023-05-07T09:39:23;2.17;;;1.98;;
12165;SDS011;6146;48.128;11.476;2023-05-07T09:41:48;2.15;;;1.95;;
12165;SDS011;6146;48.128;11.476;2023-05-07T09:44:16;1.65;;;1.55;;
12165;SDS011;6146;48.128;11.476;2023-05-07T09:46:43;1.85;;;1.50;;
12165;SDS011;6146;48.128;11.476;2023-05-07T09:49:23;2.10;;;1.75;;
12165;SDS011;6146;48.128;11.476;2023-05-07T09:51:50;2.67;;;1.60;;
12165;SDS011;6146;48.128;11.476;2023-05-07T09:54:17;1.90;;;1.80;;
12165;SDS011;6146;48.128;11.476;2023-05-07T09:56:43;2.17;;;1.98;;
12165;SDS011;6146;48.128;11.476;2023-05-07T09:59:11;3.63;;;2.10;;
12165;SDS011;6146;48.128;11.476;2023-05-07T10:01:38;2.10;;;1.90;;
12165;SDS011;6146;48.128;11.476;2023-05-07T10:04:07;1.92;;;1.70;;
12165;SDS011;6146;48.128;11.476;2023-05-07T10:06:34;2.25;;;1.90;;
12165;SDS011;6146;48.128;11.476;2023-05-07T10:09:00;2.20;;;1.63;;
12165;SDS011;6146;48.128;11.476;2023-05-07T10:11:26;3.10;;;1.70;;
12165;SDS011;6146;48.128;11.476;2023-05-07T10:13:53;2.30;;;2.10;;
12165;SDS011;6146;48.128;11.476;2023-05-07T10:16:19;2.13;;;1.90;;
12165;SDS011;6146;48.128;11.476;2023-05-07T10:18:46;1.85;;;1.70;;
12165;SDS011;6146;48.128;11.476;2023-05-07T10:21:17;2.45;;;2.25;;
12165;SDS011;6146;48.128;11.476;2023-05-07T10:23:57;3.33;;;2.38;;
12165;SDS011;6146;48.128;11.476;2023-05-07T10:26:25;3.70;;;2.22;;
12165;SDS011;6146;48.128;11.476;2023-05-07T10:28:56;3.15;;;2.03;;
12165;SDS011;6146;48.128;11.476;2023-05-07T10:34:00;2.92;;;2.10;;
12165;SDS011;6146;48.128;11.476;2023-05-07T10:36:32;3.53;;;1.90;;
12165;SDS011;6146;48.128;11.476;2023-05-07T10:38:59;3.35;;;2.17;;
12165;SDS011;6146;48.128;11.476;2023-05-07T10:41:25;2.38;;;2.10;;
12165;SDS011;6146;48.128;11.476;2023-05-07T10:43:50;2.22;;;1.85;;
12165;SDS011;6146;48.128;11.476;2023-05-07T10:46:19;2.10;;;1.88;;
12165;SDS011;6146;48.128;11.476;2023-05-07T10:51:31;2.75;;;2.00;;
12165;SDS011;6146;48.128;11.476;2023-05-07T10:56:38;2.88;;;1.88;;
12165;SDS011;6146;48.128;11.476;2023-05-07T11:02:02;2.20;;;1.80;;
12165;SDS011;6146;48.128;11.476;2023-05-07T11:04:29;2.83;;;2.13;;
12165;SDS011;6146;48.128;11.476;2023-05-07T11:17:34;2.78;;;2.00;;
12165;SDS011;6146;48.128;11.476;2023-05-07T11:20:16;1.70;;;1.60;;
12165;SDS011;6146;48.128;11.476;2023-05-07T11:22:42;2.50;;;2.25;;
12165;SDS011;6146;48.128;11.476;2023-05-07T11:25:08;1.60;;;1.50;;
12165;SDS011;6146;48.128;11.476;2023-05-07T11:27:33;1.95;;;1.75;;
12165;SDS011;6146;48.128;11.476;2023-05-07T11:29:59;2.25;;;1.77;;
12165;SDS011;6146;48.128;11.476;2023-05-07T11:32:29;2.40;;;2.15;;
12165;SDS011;6146;48.128;11.476;2023-05-07T11:34:57;2.20;;;2.00;;
12165;SDS011;6146;48.128;11.476;2023-05-07T11:37:24;2.30;;;2.00;;
12165;SDS011;6146;48.128;11.476;2023-05-07T11:39:51;2.78;;;1.90;;
12165;SDS011;6146;48.128;11.476;2023-05-07T11:42:35;2.03;;;1.83;;
12165;SDS011;6146;48.128;11.476;2023-05-07T11:45:04;3.03;;;2.40;;
12165;SDS011;6146;48.128;11.476;2023-05-07T11:47:31;2.85;;;2.20;;
12165;SDS011;6146;48.128;11.476;2023-05-07T11:49:57;2.40;;;2.15;;
12165;SDS011;6146;48.128;11.476;2023-05-07T11:52:28;2.15;;;1.98;;
12165;SDS011;6146;48.128;11.476;2023-05-07T11:54:58;2.50;;;2.30;;
12165;SDS011;6146;48.128;11.476;2023-05-07T11:57:24;2.65;;;1.90;;
12165;SDS011;6146;48.128;11.476;2023-05-07T11:59:54;2.40;;;2.20;;
12165;SDS011;6146;48.128;11.476;2023-05-07T12:02:20;3.47;;;2.47;;
12165;SDS011;6146;48.128;11.476;2023-05-07T12:04:46;2.30;;;1.98;;
12165;SDS011;6146;48.128;11.476;2023-05-07T12:07:12;4.15;;;2.17;;
12165;SDS011;6146;48.128;11.476;2023-05-07T12:09:38;2.28;;;2.08;;
12165;SDS011;6146;48.128;11.476;2023-05-07T12:12:05;2.50;;;2.30;;
12165;SDS011;6146;48.128;11.476;2023-05-07T12:14:31;2.10;;;1.90;;
12165;SDS011;6146;48.128;11.476;2023-05-07T12:16:57;2.43;;;2.23;;
12165;SDS011;6146;48.128;11.476;2023-05-07T12:19:30;2.55;;;2.20;;
12165;SDS011;6146;48.128;11.476;2023-05-07T12:21:56;3.13;;;2.27;;
12165;SDS011;6146;48.128;11.476;2023-05-07T12:24:22;3.13;;;2.27;;
12165;SDS011;6146;48.128;11.476;2023-05-07T12:26:48;2.38;;;2.17;;
12165;SDS011;6146;48.128;11.476;2023-05-07T12:29:14;3.47;;;2.55;;
12165;SDS011;6146;48.128;11.476;2023-05-07T12:31:40;3.13;;;2.83;;
12165;SDS011;6146;48.128;11.476;2023-05-07T12:34:06;3.70;;;3.07;;
12165;SDS011;6146;48.128;11.476;2023-05-07T12:36:38;3.03;;;2.60;;
12165;SDS011;6146;48.128;11.476;2023-05-07T12:39:08;3.23;;;2.40;;
12165;SDS011;6146;48.128;11.476;2023-05-07T12:41:52;3.13;;;2.27;;
12165;SDS011;6146;48.128;11.476;2023-05-07T12:44:21;4.70;;;2.63;;
12165;SDS011;6146;48.128;11.476;2023-05-07T12:46:47;3.83;;;2.30;;
12165;SDS011;6146;48.128;11.476;2023-05-07T12:49:13;3.43;;;2.40;;
12165;SDS011;6146;48.128;11.476;2023-05-07T12:51:38;3.50;;;2.63;;
12165;SDS011;6146;48.128;11.476;2023-05-07T12:54:04;2.73;;;2.30;;
12165;SDS011;6146;48.128;11.476;2023-05-07T12:56:35;2.57;;;2.10;;
12165;SDS011;6146;48.128;11.476;2023-05-07T12:59:01;2.73;;;2.50;;
12165;SDS011;6146;48.128;11.476;2023-05-07T13:01:30;3.73;;;2.33;;
12165;SDS011;6146;48.128;11.476;2023-05-07T13:04:05;2.60;;;2.40;;
12165;SDS011;6146;48.128;11.476;2023-05-07T13:06:30;3.17;;;2.43;;
12165;SDS011;6146;48.128;11.476;2023-05-07T13:08:56;3.63;;;2.13;;
12165;SDS011;6146;48.128;11.476;2023-05-07T13:11:22;4.13;;;2.30;;
12165;SDS011;6146;48.128;11.476;2023-05-07T13:13:47;2.90;;;2.60;;
12165;SDS011;6146;48.128;11.476;2023-05-07T13:16:13;2.67;;;2.13;;
12165;SDS011;6146;48.128;11.476;2023-05-07T13:18:39;2.80;;;2.13;;
12165;SDS011;6146;48.128;11.476;2023-05-07T13:21:05;2.57;;;2.17;;
12165;SDS011;6146;48.128;11.476;2023-05-07T13:23:31;2.40;;;1.90;;
12165;SDS011;6146;48.128;11.476;2023-05-07T13:25:56;2.47;;;2.20;;
12165;SDS011;6146;48.128;11.476;2023-05-07T13:28:22;2.47;;;2.17;;
12165;SDS011;6146;48.128;11.476;2023-05-07T13:30:49;2.37;;;2.00;;
12165;SDS011;6146;48.128;11.476;2023-05-07T13:33:16;3.13;;;2.43;;
12165;SDS011;6146;48.128;11.476;2023-05-07T13:35:42;2.30;;;2.10;;
12165;SDS011;6146;48.128;11.476;2023-05-07T13:38:08;2.40;;;2.20;;
12165;SDS011;6146;48.128;11.476;2023-05-07T13:40:33;2.37;;;2.00;;
12165;SDS011;6146;48.128;11.476;2023-05-07T13:42:59;2.03;;;1.83;;
12165;SDS011;6146;48.128;11.476;2023-05-07T13:45:27;2.83;;;2.23;;
12165;SDS011;6146;48.128;11.476;2023-05-07T13:47:54;2.83;;;2.20;;
12165;SDS011;6146;48.128;11.476;2023-05-07T13:50:20;2.27;;;2.07;;
12165;SDS011;6146;48.128;11.476;2023-05-07T13:52:45;2.10;;;1.90;;
12165;SDS011;6146;48.128;11.476;2023-05-07T13:55:16;2.60;;;1.97;;
12165;SDS011;6146;48.128;11.476;2023-05-07T13:57:42;2.17;;;1.97;;
12165;SDS011;6146;48.128;11.476;2023-05-07T14:00:08;3.83;;;2.40;;
12165;SDS011;6146;48.128;11.476;2023-05-07T14:02:34;2.97;;;2.10;;
12165;SDS011;6146;48.128;11.476;2023-05-07T14:05:00;3.47;;;2.40;;
12165;SDS011;6146;48.128;11.476;2023-05-07T14:07:25;3.77;;;2.20;;
12165;SDS011;6146;48.128;11.476;2023-05-07T14:09:51;3.10;;;2.50;;
12165;SDS011;6146;48.128;11.476;2023-05-07T14:12:17;2.40;;;2.20;;
12165;SDS011;6146;48.128;11.476;2023-05-07T14:14:42;2.33;;;1.97;;
12165;SDS011;6146;48.128;11.476;2023-05-07T14:17:08;2.83;;;2.13;;
12165;SDS011;6146;48.128;11.476;2023-05-07T14:19:33;2.40;;;2.20;;
12165;SDS011;6146;48.128;11.476;2023-05-07T14:21:59;3.17;;;2.10;;
12165;SDS011;6146;48.128;11.476;2023-05-07T14:24:24;1.97;;;1.87;;
12165;SDS011;6146;48.128;11.476;2023-05-07T14:26:50;2.40;;;2.20;;
12165;SDS011;6146;48.128;11.476;2023-05-07T14:29:16;2.17;;;2.00;;
12165;SDS011;6146;48.128;11.476;2023-05-07T14:31:43;2.70;;;2.17;;
12165;SDS011;6146;48.128;11.476;2023-05-07T14:34:10;3.13;;;2.20;;
12165;SDS011;6146;48.128;11.476;2023-05-07T14:36:35;2.93;;;2.13;;
12165;SDS011;6146;48.128;11.476;2023-05-07T14:39:01;2.53;;;2.20;;
12165;SDS011;6146;48.128;11.476;2023-05-07T14:41:27;2.10;;;1.90;;
12165;SDS011;6146;48.128;11.476;2023-05-07T14:43:52;3.67;;;2.20;;
12165;SDS011;6146;48.128;11.476;2023-05-07T14:46:18;4.13;;;2.00;;
12165;SDS011;6146;48.128;11.476;2023-05-07T14:48:44;2.37;;;2.17;;
12165;SDS011;6146;48.128;11.476;2023-05-07T14:51:11;2.40;;;2.20;;
12165;SDS011;6146;48.128;11.476;2023-05-07T14:53:37;2.40;;;2.20;;
12165;SDS011;6146;48.128;11.476;2023-05-07T14:56:02;2.47;;;2.27;;
12165;SDS011;6146;48.128;11.476;2023-05-07T14:58:28;4.30;;;2.17;;
12165;SDS011;6146;48.128;11.476;2023-05-07T15:00:54;2.90;;;2.20;;
12165;SDS011;6146;48.128;11.476;2023-05-07T15:03:20;4.20;;;2.63;;